Time;durP1;ratioP1;P1;durP2;ratioP2;P2;SDS_P1;SDS_P2;PMS_P1;PMS_P2;Temp;Humidity;BMP_temperature;BMP_pressure;BME280_temperature;BME280_humidity;BME280_pressure;Samples;Min_cycle;Max_cycle;Signal;HPM_P1;HPM_P2
2022/04/29 00:00:41;;;;;;;;;;;9.10;70.40;;;;;;2090690;28;19932;-90
2022/04/29 00:01:41;;;;;;;;;;;9.00;70.20;;;;;;2091423;28;19935;-90
2022/04/29 00:02:42;;;;;;;;;;;9.00;70.10;;;;;;2095063;28;19916;-90
2022/04/29 00:03:43;;;;;;;;;;;9.00;70.20;;;;;;2088807;28;19956;-90
2022/04/29 00:04:43;;;;;;;;;;;9.00;70.20;;;;;;2072899;28;19956;-90
2022/04/29 00:05:46;;;;;;;;;;;9.00;70.30;;;;;;2081617;28;19917;-91
2022/04/29 00:06:46;;;;;;;;;;;9.00;70.70;;;;;;2080848;28;20327;-91
2022/04/29 00:07:47;;;;;;;;;;;9.00;70.30;;;;;;2084858;28;19925;-90
2022/04/29 00:08:47;;;;;;;;;;;9.00;70.30;;;;;;2081158;28;19917;-90
2022/04/29 00:09:48;;;;;;;;;;;9.00;70.70;;;;;;2090680;28;19974;-89
2022/04/29 00:10:49;;;;;;;;;;;8.90;71.00;;;;;;2087260;28;20426;-89
2022/04/29 00:11:51;;;;;;;;;;;8.90;70.70;;;;;;2073830;28;19917;-90
2022/04/29 00:12:52;;;;;;;;;;;8.90;71.00;;;;;;2082447;28;19917;-90
2022/04/29 00:13:53;;;;;;;;;;;8.90;70.70;;;;;;2081379;28;19913;-90
2022/04/29 00:14:55;;;;;;;;;;;8.80;70.80;;;;;;2085191;28;20377;-91
2022/04/29 00:15:55;;;;;;;;;;;8.90;70.80;;;;;;2081550;28;19923;-91
2022/04/29 00:16:56;;;;;;;;;;;8.80;70.90;;;;;;2097012;28;19935;-90
2022/04/29 00:17:56;;;;;;;;;;;8.80;71.10;;;;;;2093214;28;19919;-91
2022/04/29 00:18:57;;;;;;;;;;;8.80;71.30;;;;;;2084272;28;20043;-91
2022/04/29 00:19:58;;;;;;;;;;;8.80;71.20;;;;;;2081491;28;19913;-90
2022/04/29 00:20:58;;;;;;;;;;;8.80;71.20;;;;;;2077468;28;19917;-90
2022/04/29 00:21:59;;;;;;;;;;;8.80;71.00;;;;;;2086173;28;19956;-90
2022/04/29 00:23:00;;;;;;;;;;;8.70;71.00;;;;;;2081600;28;19920;-90
2022/04/29 00:24:01;;;;;;;;;;;8.80;71.20;;;;;;2080739;28;20282;-90
2022/04/29 00:25:03;;;;;;;;;;;8.70;70.90;;;;;;2082920;28;19916;-91
2022/04/29 00:26:03;;;;;;;;;;;8.70;71.30;;;;;;2090413;28;19984;-90
2022/04/29 00:27:04;;;;;;;;;;;8.70;70.90;;;;;;2082669;28;20308;-90
2022/04/29 00:28:05;;;;;;;;;;;8.70;70.90;;;;;;2073688;28;19917;-90
2022/04/29 00:29:06;;;;;;;;;;;8.70;70.90;;;;;;2080007;28;19917;-90
2022/04/29 00:30:08;;;;;;;;;;;8.70;70.90;;;;;;2094681;28;19920;-91
2022/04/29 00:31:09;;;;;;;;;;;8.70;70.90;;;;;;2093668;28;19967;-89
2022/04/29 00:32:09;;;;;;;;;;;8.70;71.00;;;;;;2087355;28;19917;-90
2022/04/29 00:33:10;;;;;;;;;;;8.70;71.00;;;;;;2072763;28;20469;-91
2022/04/29 00:34:11;;;;;;;;;;;8.70;71.10;;;;;;2085601;28;19921;-90
2022/04/29 00:35:11;;;;;;;;;;;8.70;70.90;;;;;;2090913;28;19958;-91
2022/04/29 00:36:12;;;;;;;;;;;8.70;70.90;;;;;;2096215;28;20266;-90
2022/04/29 00:37:12;;;;;;;;;;;8.70;71.00;;;;;;2086727;28;19925;-90
2022/04/29 00:38:16;;;;;;;;;;;8.60;71.30;;;;;;2072142;28;19925;-90
2022/04/29 00:39:17;;;;;;;;;;;8.60;71.00;;;;;;2075169;28;19924;-90
2022/04/29 00:40:18;;;;;;;;;;;8.60;71.20;;;;;;2081788;28;20492;-91
2022/04/29 00:41:20;;;;;;;;;;;8.60;71.10;;;;;;2088636;28;19917;-90
2022/04/29 00:42:24;;;;;;;;;;;8.60;71.10;;;;;;2089373;28;19917;-90
2022/04/29 00:43:25;;;;;;;;;;;8.60;71.30;;;;;;2082305;28;19909;-90
2022/04/29 00:44:25;;;;;;;;;;;8.50;71.10;;;;;;2085407;28;20398;-90
2022/04/29 00:45:26;;;;;;;;;;;8.50;71.10;;;;;;2097517;28;19912;-90
2022/04/29 00:46:27;;;;;;;;;;;8.50;71.50;;;;;;2098001;28;19912;-90
2022/04/29 00:47:27;;;;;;;;;;;8.50;71.40;;;;;;2095691;28;19913;-90
2022/04/29 00:48:28;;;;;;;;;;;8.50;71.40;;;;;;2088850;28;19928;-90
2022/04/29 00:49:29;;;;;;;;;;;8.50;71.50;;;;;;2088398;28;20352;-90
2022/04/29 00:50:30;;;;;;;;;;;8.50;71.40;;;;;;2088608;28;19920;-90
2022/04/29 00:51:30;;;;;;;;;;;8.50;71.80;;;;;;2086076;28;20444;-90
2022/04/29 00:52:31;;;;;;;;;;;8.40;71.40;;;;;;2096391;28;19909;-91
2022/04/29 00:53:32;;;;;;;;;;;8.40;71.40;;;;;;2074356;28;19917;-90
2022/04/29 00:54:34;;;;;;;;;;;8.40;71.50;;;;;;2081515;28;20396;-91
2022/04/29 00:55:36;;;;;;;;;;;8.40;71.40;;;;;;2080279;28;20295;-91
2022/04/29 00:56:38;;;;;;;;;;;8.40;71.40;;;;;;2081264;28;19972;-90
2022/04/29 00:57:51;;;;;;;;;;;8.40;71.30;;;;;;2079226;28;19909;-90
2022/04/29 00:59:06;;;;;;;;;;;8.40;72.30;;;;;;2083661;28;20008;-91
2022/04/29 01:00:09;;;;;;;;;;;8.40;71.40;;;;;;2096490;28;20300;-90
2022/04/29 01:01:10;;;;;;;;;;;8.30;71.50;;;;;;2087733;28;19917;-90
2022/04/29 01:02:11;;;;;;;;;;;8.30;71.70;;;;;;2072930;28;20282;-90
2022/04/29 01:03:13;;;;;;;;;;;8.30;71.50;;;;;;2083755;28;20301;-91
2022/04/29 01:04:18;;;;;;;;;;;8.30;71.50;;;;;;2090298;28;19921;-90
2022/04/29 01:05:20;;;;;;;;;;;8.30;71.60;;;;;;2090139;28;19917;-91
2022/04/29 01:06:20;;;;;;;;;;;8.30;71.60;;;;;;2101754;28;20300;-90
2022/04/29 01:07:22;;;;;;;;;;;8.30;71.50;;;;;;2096956;28;19912;-91
2022/04/29 01:08:22;;;;;;;;;;;8.30;71.70;;;;;;2073095;28;19937;-90
2022/04/29 01:09:23;;;;;;;;;;;8.30;71.90;;;;;;2085211;28;19909;-90
2022/04/29 01:10:24;;;;;;;;;;;8.30;71.90;;;;;;2082203;28;20412;-90
2022/04/29 01:11:25;;;;;;;;;;;8.30;72.10;;;;;;2081630;28;19914;-90
2022/04/29 01:12:26;;;;;;;;;;;8.30;72.50;;;;;;2094816;28;20351;-90
2022/04/29 01:13:27;;;;;;;;;;;8.20;72.20;;;;;;2081783;28;19918;-90
2022/04/29 01:14:27;;;;;;;;;;;8.30;72.20;;;;;;2076809;28;19944;-90
2022/04/29 01:15:28;;;;;;;;;;;8.20;72.10;;;;;;2080652;28;20436;-90
2022/04/29 01:16:29;;;;;;;;;;;8.20;72.30;;;;;;2081718;28;19917;-90
2022/04/29 01:17:31;;;;;;;;;;;8.20;73.00;;;;;;2089318;28;19948;-90
2022/04/29 01:18:32;;;;;;;;;;;8.20;72.40;;;;;;2081172;28;20007;-89
2022/04/29 01:19:33;;;;;;;;;;;8.20;72.50;;;;;;2094645;28;20404;-90
2022/04/29 01:20:33;;;;;;;;;;;8.20;72.50;;;;;;2088928;28;20309;-90
2022/04/29 01:21:34;;;;;;;;;;;8.20;72.30;;;;;;2078205;28;20294;-91
2022/04/29 01:22:34;;;;;;;;;;;8.20;72.20;;;;;;2075861;28;20029;-90
2022/04/29 01:23:35;;;;;;;;;;;8.20;72.50;;;;;;2083134;28;19932;-90
2022/04/29 01:24:36;;;;;;;;;;;8.20;72.30;;;;;;2077193;28;19913;-90
2022/04/29 01:25:37;;;;;;;;;;;8.10;72.20;;;;;;2080851;28;20413;-90
2022/04/29 01:26:38;;;;;;;;;;;8.20;72.40;;;;;;2066950;28;19961;-90
2022/04/29 01:27:39;;;;;;;;;;;8.10;72.70;;;;;;2091209;28;19913;-91
2022/04/29 01:28:39;;;;;;;;;;;8.10;72.60;;;;;;2090955;28;19927;-91
2022/04/29 01:29:41;;;;;;;;;;;8.20;72.70;;;;;;2075092;28;20378;-90
2022/04/29 01:30:42;;;;;;;;;;;8.20;72.70;;;;;;2083120;28;19933;-90
2022/04/29 01:31:43;;;;;;;;;;;8.10;72.50;;;;;;2081556;28;19988;-90
2022/04/29 01:32:44;;;;;;;;;;;8.10;72.40;;;;;;2082743;28;20415;-90
2022/04/29 01:33:46;;;;;;;;;;;8.10;72.40;;;;;;2079437;28;20369;-90
2022/04/29 01:34:47;;;;;;;;;;;8.10;72.60;;;;;;2095998;28;19915;-90
2022/04/29 01:35:48;;;;;;;;;;;8.10;72.40;;;;;;2084911;28;19924;-90
2022/04/29 01:36:48;;;;;;;;;;;8.10;72.40;;;;;;2070799;28;19961;-89
2022/04/29 01:37:49;;;;;;;;;;;8.10;73.00;;;;;;2073892;28;20421;-90
2022/04/29 01:38:49;;;;;;;;;;;8.10;72.70;;;;;;2074632;28;20023;-90
2022/04/29 01:39:50;;;;;;;;;;;8.10;73.10;;;;;;2082837;28;19999;-90
2022/04/29 01:40:50;;;;;;;;;;;8.00;73.20;;;;;;2091033;28;19916;-89
2022/04/29 01:41:51;;;;;;;;;;;8.00;73.50;;;;;;2081154;28;19918;-90
2022/04/29 01:42:52;;;;;;;;;;;8.00;73.10;;;;;;2074466;28;19918;-90
2022/04/29 01:43:53;;;;;;;;;;;8.00;73.00;;;;;;2082294;28;20341;-90
2022/04/29 01:44:53;;;;;;;;;;;8.00;73.00;;;;;;2083157;28;19944;-91
2022/04/29 01:45:54;;;;;;;;;;;8.00;73.00;;;;;;2073866;28;19968;-90
2022/04/29 01:46:54;;;;;;;;;;;8.00;73.20;;;;;;2100075;28;19948;-90
2022/04/29 01:47:55;;;;;;;;;;;8.00;72.90;;;;;;2089944;28;19916;-91
2022/04/29 01:48:55;;;;;;;;;;;8.00;72.80;;;;;;2074257;28;19918;-91
2022/04/29 01:49:56;;;;;;;;;;;8.00;73.00;;;;;;2096287;28;19916;-90
2022/04/29 01:50:57;;;;;;;;;;;8.00;73.00;;;;;;2098318;28;19923;-90
2022/04/29 01:51:57;;;;;;;;;;;8.00;72.80;;;;;;2100005;28;19960;-89
2022/04/29 01:52:58;;;;;;;;;;;8.00;72.90;;;;;;2089535;28;20385;-90
2022/04/29 01:53:58;;;;;;;;;;;8.00;72.90;;;;;;2090283;28;19974;-90
2022/04/29 01:54:59;;;;;;;;;;;8.00;73.00;;;;;;2088496;28;19944;-90
2022/04/29 01:55:59;;;;;;;;;;;8.00;73.50;;;;;;2076643;28;19967;-90
2022/04/29 01:57:00;;;;;;;;;;;8.00;73.60;;;;;;2073770;28;19958;-90
2022/04/29 01:58:01;;;;;;;;;;;8.00;73.20;;;;;;2082570;28;19920;-90
2022/04/29 01:59:02;;;;;;;;;;;7.90;73.50;;;;;;2089570;28;20020;-90
2022/04/29 02:00:04;;;;;;;;;;;7.90;73.60;;;;;;2089123;28;19966;-90
2022/04/29 02:01:04;;;;;;;;;;;7.90;73.80;;;;;;2099180;28;19997;-91
2022/04/29 02:02:08;;;;;;;;;;;7.90;73.40;;;;;;2099410;28;19913;-90
2022/04/29 02:03:09;;;;;;;;;;;7.90;73.40;;;;;;2096180;28;20422;-90
2022/04/29 02:04:09;;;;;;;;;;;7.90;73.50;;;;;;2096967;28;19913;-90
2022/04/29 02:05:11;;;;;;;;;;;7.90;73.40;;;;;;2097747;28;20384;-90
2022/04/29 02:06:12;;;;;;;;;;;7.90;73.40;;;;;;2088515;28;19925;-90
2022/04/29 02:07:13;;;;;;;;;;;7.90;73.40;;;;;;2074067;28;19988;-90
2022/04/29 02:08:14;;;;;;;;;;;7.80;73.70;;;;;;2088152;28;20365;-90
2022/04/29 02:09:14;;;;;;;;;;;7.80;73.70;;;;;;2089795;28;19928;-90
2022/04/29 02:10:15;;;;;;;;;;;7.80;73.60;;;;;;2090451;28;20376;-90
2022/04/29 02:11:19;;;;;;;;;;;7.80;73.80;;;;;;2090330;28;19952;-90
2022/04/29 02:12:19;;;;;;;;;;;7.80;74.00;;;;;;2090777;28;19925;-90
2022/04/29 02:13:20;;;;;;;;;;;7.80;73.80;;;;;;2083012;28;20364;-91
2022/04/29 02:14:21;;;;;;;;;;;7.80;73.80;;;;;;2082674;28;20407;-91
2022/04/29 02:15:21;;;;;;;;;;;7.80;73.80;;;;;;2082601;28;19948;-90
2022/04/29 02:16:22;;;;;;;;;;;7.80;74.10;;;;;;2089550;28;19999;-91
2022/04/29 02:17:23;;;;;;;;;;;7.80;74.10;;;;;;2095557;28;20031;-91
2022/04/29 02:18:23;;;;;;;;;;;7.70;73.90;;;;;;2084814;28;19920;-91
2022/04/29 02:19:24;;;;;;;;;;;7.70;74.20;;;;;;2088219;28;19908;-90
2022/04/29 02:20:25;;;;;;;;;;;7.70;74.40;;;;;;2090499;28;19917;-90
2022/04/29 02:21:25;;;;;;;;;;;7.70;74.10;;;;;;2081167;28;20398;-88
2022/04/29 02:22:26;;;;;;;;;;;7.70;74.10;;;;;;2081906;28;19960;-91
2022/04/29 02:23:27;;;;;;;;;;;7.70;74.20;;;;;;2076694;28;19921;-90
2022/04/29 02:24:27;;;;;;;;;;;7.70;74.10;;;;;;2090403;28;19913;-90
2022/04/29 02:25:28;;;;;;;;;;;7.70;74.30;;;;;;2097592;28;20380;-90
2022/04/29 02:26:28;;;;;;;;;;;7.70;74.20;;;;;;2088752;28;20365;-90
2022/04/29 02:27:29;;;;;;;;;;;7.70;74.10;;;;;;2097384;28;19924;-91
2022/04/29 02:28:31;;;;;;;;;;;7.70;74.00;;;;;;2079009;28;19933;-90
2022/04/29 02:29:31;;;;;;;;;;;7.70;74.10;;;;;;2062169;28;20026;-91
2022/04/29 02:30:33;;;;;;;;;;;7.70;74.20;;;;;;2081528;28;19986;-90
2022/04/29 02:31:33;;;;;;;;;;;7.70;74.40;;;;;;2086354;28;19960;-90
2022/04/29 02:32:34;;;;;;;;;;;7.70;74.20;;;;;;2096454;28;20446;-90
2022/04/29 02:33:34;;;;;;;;;;;7.70;74.20;;;;;;2083138;28;19934;-90
2022/04/29 02:34:36;;;;;;;;;;;7.70;74.30;;;;;;2080511;28;19951;-90
2022/04/29 02:35:37;;;;;;;;;;;7.70;74.20;;;;;;2082449;28;20019;-91
2022/04/29 02:36:37;;;;;;;;;;;7.70;74.10;;;;;;2090514;28;19913;-90
2022/04/29 02:37:38;;;;;;;;;;;7.70;74.10;;;;;;2096704;28;19921;-90
2022/04/29 02:38:38;;;;;;;;;;;7.70;74.30;;;;;;2090266;28;19920;-89
2022/04/29 02:39:39;;;;;;;;;;;7.70;74.10;;;;;;2082263;28;19925;-90
2022/04/29 02:40:39;;;;;;;;;;;7.70;74.60;;;;;;2070722;28;20375;-90
2022/04/29 02:41:40;;;;;;;;;;;7.70;74.50;;;;;;2070828;28;19928;-90
2022/04/29 02:42:41;;;;;;;;;;;7.60;74.50;;;;;;2087959;28;19913;-90
2022/04/29 02:43:42;;;;;;;;;;;7.60;74.30;;;;;;2096538;28;20450;-90
2022/04/29 02:44:42;;;;;;;;;;;7.60;74.50;;;;;;2088658;28;20398;-90
2022/04/29 02:45:43;;;;;;;;;;;7.60;74.40;;;;;;2080922;28;19957;-90
2022/04/29 02:48:04;;;;;;;;;;;7.60;74.50;;;;;;2088858;28;19928;-91
2022/04/29 02:49:04;;;;;;;;;;;7.60;74.90;;;;;;2106980;28;19924;-90
2022/04/29 02:50:05;;;;;;;;;;;7.60;74.60;;;;;;2090790;28;19920;-90
2022/04/29 02:51:06;;;;;;;;;;;7.60;74.70;;;;;;2088423;28;19962;-90
2022/04/29 02:52:07;;;;;;;;;;;7.60;74.90;;;;;;2090703;28;20336;-90
2022/04/29 02:53:07;;;;;;;;;;;7.60;74.90;;;;;;2090457;28;20327;-90
2022/04/29 02:54:08;;;;;;;;;;;7.60;75.00;;;;;;2088367;28;20387;-90
2022/04/29 02:55:08;;;;;;;;;;;7.60;74.70;;;;;;2072464;28;19918;-91
2022/04/29 02:56:09;;;;;;;;;;;7.60;74.80;;;;;;2088104;28;20384;-90
2022/04/29 02:57:09;;;;;;;;;;;7.60;74.80;;;;;;2088280;28;19963;-90
2022/04/29 02:58:11;;;;;;;;;;;7.60;74.90;;;;;;2078015;28;20352;-90
2022/04/29 02:59:12;;;;;;;;;;;7.60;74.80;;;;;;2089632;28;19921;-90
2022/04/29 03:00:13;;;;;;;;;;;7.60;75.50;;;;;;2082420;28;19925;-91
2022/04/29 03:01:13;;;;;;;;;;;7.60;74.80;;;;;;2073020;28;19917;-91
2022/04/29 03:02:14;;;;;;;;;;;7.60;74.90;;;;;;2088352;28;19917;-90
2022/04/29 03:03:15;;;;;;;;;;;7.60;74.90;;;;;;2097541;28;20395;-90
2022/04/29 03:04:15;;;;;;;;;;;7.60;74.70;;;;;;2081666;28;20317;-90
2022/04/29 03:05:16;;;;;;;;;;;7.60;75.20;;;;;;2081768;28;20007;-90
2022/04/29 03:06:16;;;;;;;;;;;7.60;75.70;;;;;;2082096;28;19924;-91
2022/04/29 03:07:17;;;;;;;;;;;7.60;75.10;;;;;;2088350;28;19948;-90
2022/04/29 03:08:17;;;;;;;;;;;7.60;75.00;;;;;;2088669;28;19999;-91
2022/04/29 03:09:20;;;;;;;;;;;7.60;75.00;;;;;;2085285;28;20313;-91
2022/04/29 03:10:21;;;;;;;;;;;7.50;74.80;;;;;;2089253;28;20000;-91
2022/04/29 03:11:21;;;;;;;;;;;7.50;74.90;;;;;;2080586;28;19936;-90
2022/04/29 03:12:23;;;;;;;;;;;7.60;75.40;;;;;;2081079;28;20317;-91
2022/04/29 03:13:23;;;;;;;;;;;7.60;74.60;;;;;;2076694;28;19963;-91
2022/04/29 03:14:24;;;;;;;;;;;7.60;74.70;;;;;;2077927;28;20471;-91
2022/04/29 03:15:25;;;;;;;;;;;7.60;74.70;;;;;;2074092;28;19917;-91
2022/04/29 03:16:26;;;;;;;;;;;7.60;74.60;;;;;;2086366;28;19968;-90
2022/04/29 03:18:45;;;;;;;;;;;7.50;74.90;;;;;;2090869;28;19960;-89
2022/04/29 03:19:46;;;;;;;;;;;7.60;74.90;;;;;;2084273;28;19913;-91
2022/04/29 03:20:48;;;;;;;;;;;7.60;74.70;;;;;;2082419;28;19917;-91
2022/04/29 03:21:48;;;;;;;;;;;7.50;74.80;;;;;;2091281;28;19969;-90
2022/04/29 03:22:50;;;;;;;;;;;7.50;74.80;;;;;;2087677;28;19956;-90
2022/04/29 03:23:51;;;;;;;;;;;7.50;75.00;;;;;;2074238;28;19913;-91
2022/04/29 03:24:51;;;;;;;;;;;7.50;74.70;;;;;;2082828;28;19940;-90
2022/04/29 03:25:52;;;;;;;;;;;7.50;74.80;;;;;;2082478;28;20007;-90
2022/04/29 03:26:52;;;;;;;;;;;7.50;74.70;;;;;;2073977;28;19964;-91
2022/04/29 03:27:53;;;;;;;;;;;7.50;74.70;;;;;;2089750;28;20363;-91
2022/04/29 03:28:54;;;;;;;;;;;7.50;74.90;;;;;;2074062;28;19964;-90
2022/04/29 03:29:54;;;;;;;;;;;7.50;75.60;;;;;;2070020;28;20259;-90
2022/04/29 03:30:55;;;;;;;;;;;7.60;75.10;;;;;;2079277;28;20263;-91
2022/04/29 03:31:55;;;;;;;;;;;7.50;75.00;;;;;;2081524;28;20298;-90
2022/04/29 03:32:57;;;;;;;;;;;7.50;75.20;;;;;;2095849;28;20408;-90
2022/04/29 03:33:58;;;;;;;;;;;7.50;75.00;;;;;;2096298;28;19912;-89
2022/04/29 03:34:58;;;;;;;;;;;7.50;75.10;;;;;;2095859;28;19956;-91
2022/04/29 03:35:59;;;;;;;;;;;7.50;75.10;;;;;;2089827;28;19964;-91
2022/04/29 03:37:00;;;;;;;;;;;7.40;75.50;;;;;;2089965;28;19921;-90
2022/04/29 03:38:00;;;;;;;;;;;7.40;75.60;;;;;;2088682;28;19921;-89
2022/04/29 03:39:02;;;;;;;;;;;7.50;75.40;;;;;;2088095;28;19929;-90
2022/04/29 03:40:02;;;;;;;;;;;7.40;75.30;;;;;;2094122;28;20000;-90
2022/04/29 03:41:03;;;;;;;;;;;7.50;75.30;;;;;;2097524;28;20035;-90
2022/04/29 03:42:04;;;;;;;;;;;7.50;75.30;;;;;;2096482;28;19952;-90
2022/04/29 03:43:05;;;;;;;;;;;7.50;75.60;;;;;;2093857;28;19951;-89
2022/04/29 03:44:06;;;;;;;;;;;7.40;75.30;;;;;;2102116;28;19913;-90
2022/04/29 03:45:06;;;;;;;;;;;7.40;75.30;;;;;;2090736;28;19913;-90
2022/04/29 03:46:07;;;;;;;;;;;7.40;75.40;;;;;;2091084;28;19943;-91
2022/04/29 03:47:08;;;;;;;;;;;7.40;75.40;;;;;;2105600;28;19958;-91
2022/04/29 03:48:08;;;;;;;;;;;7.40;75.30;;;;;;2102905;28;19893;-91
2022/04/29 03:50:28;;;;;;;;;;;7.40;75.70;;;;;;2099824;28;19917;-90
2022/04/29 03:51:29;;;;;;;;;;;7.40;75.90;;;;;;2092842;28;19917;-90
2022/04/29 03:52:29;;;;;;;;;;;7.40;75.90;;;;;;2087349;28;19980;-91
2022/04/29 03:53:31;;;;;;;;;;;7.30;75.90;;;;;;2085948;28;19921;-90
2022/04/29 03:54:32;;;;;;;;;;;7.30;75.80;;;;;;2079557;28;19936;-90
2022/04/29 03:55:34;;;;;;;;;;;7.30;75.90;;;;;;2090916;28;19917;-90
2022/04/29 03:56:34;;;;;;;;;;;7.30;76.10;;;;;;2096602;28;20367;-90
2022/04/29 03:57:35;;;;;;;;;;;7.30;76.00;;;;;;2089376;28;19913;-90
2022/04/29 03:58:35;;;;;;;;;;;7.30;76.50;;;;;;2083448;28;19925;-89
2022/04/29 03:59:36;;;;;;;;;;;7.30;76.60;;;;;;2089459;28;19947;-90
2022/04/29 04:00:37;;;;;;;;;;;7.20;76.30;;;;;;2082126;28;19917;-90
2022/04/29 04:01:37;;;;;;;;;;;7.20;77.00;;;;;;2082731;28;19924;-91
2022/04/29 04:02:39;;;;;;;;;;;7.20;76.60;;;;;;2073993;28;19956;-90
2022/04/29 04:03:40;;;;;;;;;;;7.20;76.40;;;;;;2089614;28;20270;-90
2022/04/29 04:04:40;;;;;;;;;;;7.20;76.70;;;;;;2086020;28;19921;-91
2022/04/29 04:06:49;;;;;;;;;;;7.20;76.50;;;;;;2095718;28;19931;-90
2022/04/29 04:07:02;;;;;;;;;;;7.20;76.40;;;;;;2093732;28;19915;-91
2022/04/29 04:08:03;;;;;;;;;;;7.20;76.40;;;;;;2091499;28;20388;-91
2022/04/29 04:09:03;;;;;;;;;;;7.20;76.20;;;;;;2090268;28;19951;-90
2022/04/29 04:10:05;;;;;;;;;;;7.20;76.30;;;;;;2085433;28;19909;-91
2022/04/29 04:11:05;;;;;;;;;;;7.20;76.40;;;;;;2087617;28;19917;-90
2022/04/29 04:12:06;;;;;;;;;;;7.20;76.20;;;;;;2084963;28;19956;-91
2022/04/29 04:13:07;;;;;;;;;;;7.20;76.20;;;;;;2097727;28;19916;-91
2022/04/29 04:14:08;;;;;;;;;;;7.30;76.50;;;;;;2087711;28;19923;-91
2022/04/29 04:15:10;;;;;;;;;;;7.30;76.20;;;;;;2081989;28;19913;-90
2022/04/29 04:16:11;;;;;;;;;;;7.30;76.20;;;;;;2089882;28;19921;-91
2022/04/29 04:17:11;;;;;;;;;;;7.30;76.30;;;;;;2081795;28;20008;-90
2022/04/29 04:18:12;;;;;;;;;;;7.30;76.20;;;;;;2073556;28;19910;-90
2022/04/29 04:19:13;;;;;;;;;;;7.30;76.20;;;;;;2094627;28;19946;-91
2022/04/29 04:20:14;;;;;;;;;;;7.30;76.00;;;;;;2098396;28;19927;-91
2022/04/29 04:21:14;;;;;;;;;;;7.30;75.90;;;;;;2081890;28;19921;-90
2022/04/29 04:22:15;;;;;;;;;;;7.30;75.90;;;;;;2089737;28;19923;-90
2022/04/29 04:23:16;;;;;;;;;;;7.40;76.10;;;;;;2089035;28;20366;-91
2022/04/29 04:24:16;;;;;;;;;;;7.30;75.90;;;;;;2081867;28;19917;-90
2022/04/29 04:25:17;;;;;;;;;;;7.30;76.00;;;;;;2073002;28;19917;-90
2022/04/29 04:26:17;;;;;;;;;;;7.30;75.90;;;;;;2075230;28;20486;-90
2022/04/29 04:27:18;;;;;;;;;;;7.30;75.90;;;;;;2086813;28;19917;-89
2022/04/29 04:28:18;;;;;;;;;;;7.30;75.90;;;;;;2095823;28;20034;-90
2022/04/29 04:29:19;;;;;;;;;;;7.30;75.90;;;;;;2094092;28;20012;-91
2022/04/29 04:30:19;;;;;;;;;;;7.30;76.10;;;;;;2075292;28;19921;-90
2022/04/29 04:31:24;;;;;;;;;;;7.30;76.10;;;;;;2088183;28;19929;-90
2022/04/29 04:32:25;;;;;;;;;;;7.30;76.00;;;;;;2089603;28;19913;-90
2022/04/29 04:33:26;;;;;;;;;;;7.40;76.00;;;;;;2080964;28;19952;-90
2022/04/29 04:35:45;;;;;;;;;;;7.40;76.20;;;;;;2088403;28;19917;-90
2022/04/29 04:36:48;;;;;;;;;;;7.30;75.80;;;;;;2078598;28;19917;-90
2022/04/29 04:37:49;;;;;;;;;;;7.30;75.80;;;;;;2079748;28;19999;-90
2022/04/29 04:38:50;;;;;;;;;;;7.40;75.90;;;;;;2086950;28;20432;-90
2022/04/29 04:39:51;;;;;;;;;;;7.40;76.10;;;;;;2096674;28;20289;-90
2022/04/29 04:40:53;;;;;;;;;;;7.40;76.20;;;;;;2084579;28;19925;-91
2022/04/29 04:41:53;;;;;;;;;;;7.40;76.10;;;;;;2087244;28;20280;-90
2022/04/29 04:42:54;;;;;;;;;;;7.30;76.00;;;;;;2077963;28;19918;-90
2022/04/29 04:43:55;;;;;;;;;;;7.30;76.40;;;;;;2069978;28;19921;-90
2022/04/29 04:44:55;;;;;;;;;;;7.30;76.30;;;;;;2088150;28;19951;-90
2022/04/29 04:45:56;;;;;;;;;;;7.30;76.10;;;;;;2093934;28;19916;-90
2022/04/29 04:46:57;;;;;;;;;;;7.40;76.00;;;;;;2098786;28;19947;-90
2022/04/29 04:47:58;;;;;;;;;;;7.40;75.90;;;;;;2102705;28;20365;-91
2022/04/29 04:48:58;;;;;;;;;;;7.40;75.90;;;;;;2081293;28;19917;-90
2022/04/29 04:49:59;;;;;;;;;;;7.40;75.90;;;;;;2085799;28;19931;-90
2022/04/29 04:51:03;;;;;;;;;;;7.40;75.90;;;;;;2091143;28;19921;-90
2022/04/29 04:52:04;;;;;;;;;;;7.40;76.10;;;;;;2088402;28;19917;-91
2022/04/29 04:53:05;;;;;;;;;;;7.40;76.50;;;;;;2089111;28;19924;-90
2022/04/29 04:54:06;;;;;;;;;;;7.40;76.20;;;;;;2089744;28;19952;-90
2022/04/29 04:55:06;;;;;;;;;;;7.40;76.00;;;;;;2082205;28;19924;-90
2022/04/29 04:56:07;;;;;;;;;;;7.40;76.10;;;;;;2080795;28;19917;-90
2022/04/29 04:57:08;;;;;;;;;;;7.40;76.20;;;;;;2090606;28;19947;-90
2022/04/29 04:58:09;;;;;;;;;;;7.40;76.40;;;;;;2090324;28;20397;-89
2022/04/29 04:59:10;;;;;;;;;;;7.40;76.40;;;;;;2095190;28;19925;-91
2022/04/29 05:00:11;;;;;;;;;;;7.40;76.20;;;;;;2088488;28;19920;-89
2022/04/29 05:01:11;;;;;;;;;;;7.40;76.60;;;;;;2072567;28;19997;-90
2022/04/29 05:02:12;;;;;;;;;;;7.40;76.60;;;;;;2082868;28;19924;-90
2022/04/29 05:03:13;;;;;;;;;;;7.30;76.60;;;;;;2093564;28;20027;-90
2022/04/29 05:04:13;;;;;;;;;;;7.40;76.40;;;;;;2097946;28;19970;-91
2022/04/29 05:05:14;;;;;;;;;;;7.30;76.30;;;;;;2087350;28;19917;-90
2022/04/29 05:06:14;;;;;;;;;;;7.30;76.50;;;;;;2080741;28;19936;-91
2022/04/29 05:07:15;;;;;;;;;;;7.30;76.50;;;;;;2097849;28;19920;-90
2022/04/29 05:08:15;;;;;;;;;;;7.30;76.50;;;;;;2082968;28;19924;-90
2022/04/29 05:09:16;;;;;;;;;;;7.30;76.60;;;;;;2073886;28;19914;-90
2022/04/29 05:10:18;;;;;;;;;;;7.30;76.90;;;;;;2080207;28;19917;-90
2022/04/29 05:11:19;;;;;;;;;;;7.30;76.80;;;;;;2090785;28;20008;-91
2022/04/29 05:12:19;;;;;;;;;;;7.30;77.00;;;;;;2083186;28;19932;-90
2022/04/29 05:13:20;;;;;;;;;;;7.30;76.80;;;;;;2099258;28;19924;-91
2022/04/29 05:14:20;;;;;;;;;;;7.30;76.70;;;;;;2085502;28;19917;-90
2022/04/29 05:15:21;;;;;;;;;;;7.30;76.70;;;;;;2090280;28;19917;-90
2022/04/29 05:16:21;;;;;;;;;;;7.30;76.80;;;;;;2099196;28;19924;-90
2022/04/29 05:17:22;;;;;;;;;;;7.30;77.20;;;;;;2081716;28;20356;-91
2022/04/29 05:18:23;;;;;;;;;;;7.30;76.90;;;;;;2074356;28;19960;-91
2022/04/29 05:19:23;;;;;;;;;;;7.30;76.80;;;;;;2081757;28;19913;-92
2022/04/29 05:20:24;;;;;;;;;;;7.30;77.10;;;;;;2084134;28;20015;-90
2022/04/29 05:21:24;;;;;;;;;;;7.30;77.00;;;;;;2098384;28;20012;-91
2022/04/29 05:22:27;;;;;;;;;;;7.30;77.50;;;;;;2084766;28;19941;-90
2022/04/29 05:23:28;;;;;;;;;;;7.30;77.30;;;;;;2077401;28;19916;-90
2022/04/29 05:24:28;;;;;;;;;;;7.30;77.10;;;;;;2094218;28;19917;-90
2022/04/29 05:25:29;;;;;;;;;;;7.30;77.00;;;;;;2085779;28;19917;-90
2022/04/29 05:26:29;;;;;;;;;;;7.30;77.60;;;;;;2083316;28;19944;-90
2022/04/29 05:27:30;;;;;;;;;;;7.40;77.20;;;;;;2101900;28;19917;-90
2022/04/29 05:28:31;;;;;;;;;;;7.30;77.00;;;;;;2102229;28;19916;-90
2022/04/29 05:29:32;;;;;;;;;;;7.30;77.40;;;;;;2085735;28;20016;-90
2022/04/29 05:30:32;;;;;;;;;;;7.30;77.20;;;;;;2084408;28;20273;-90
2022/04/29 05:31:33;;;;;;;;;;;7.30;77.10;;;;;;2084256;28;19924;-91
2022/04/29 05:32:34;;;;;;;;;;;7.30;77.10;;;;;;2085217;28;19913;-90
2022/04/29 05:33:36;;;;;;;;;;;7.30;77.10;;;;;;2090780;28;19909;-89
2022/04/29 05:34:37;;;;;;;;;;;7.30;77.30;;;;;;2101913;28;19951;-90
2022/04/29 05:35:38;;;;;;;;;;;7.30;77.10;;;;;;2091327;28;20457;-90
2022/04/29 05:36:38;;;;;;;;;;;7.40;77.10;;;;;;2082821;28;19913;-91
2022/04/29 05:37:40;;;;;;;;;;;7.30;77.30;;;;;;2084277;28;19992;-90
2022/04/29 05:42:39;;;;;;;;;;;7.40;77.00;;;;;;2096559;28;19913;-90
2022/04/29 05:43:39;;;;;;;;;;;7.40;77.40;;;;;;2090010;28;19913;-91
2022/04/29 05:44:40;;;;;;;;;;;7.40;77.00;;;;;;2085313;28;19923;-90
2022/04/29 05:45:41;;;;;;;;;;;7.40;76.90;;;;;;2083664;28;20377;-90
2022/04/29 05:46:42;;;;;;;;;;;7.40;76.90;;;;;;2099684;28;19919;-90
2022/04/29 05:47:42;;;;;;;;;;;7.40;77.10;;;;;;2100332;28;19908;-90
2022/04/29 05:48:43;;;;;;;;;;;7.40;76.90;;;;;;2091403;28;19964;-90
2022/04/29 05:49:43;;;;;;;;;;;7.40;77.40;;;;;;2083060;28;20051;-90
2022/04/29 05:50:46;;;;;;;;;;;7.40;77.60;;;;;;2091829;28;19979;-91
2022/04/29 05:51:46;;;;;;;;;;;7.40;77.50;;;;;;2091028;28;19913;-90
2022/04/29 05:52:47;;;;;;;;;;;7.40;77.30;;;;;;2083092;28;20365;-91
2022/04/29 05:53:48;;;;;;;;;;;7.50;77.20;;;;;;2074860;28;19917;-90
2022/04/29 05:54:49;;;;;;;;;;;7.40;77.10;;;;;;2083217;28;19913;-90
2022/04/29 05:55:49;;;;;;;;;;;7.40;77.00;;;;;;2083497;28;19917;-91
2022/04/29 05:56:50;;;;;;;;;;;7.50;77.00;;;;;;2096599;28;19985;-90
2022/04/29 05:57:50;;;;;;;;;;;7.50;77.00;;;;;;2091349;28;19927;-89
2022/04/29 05:58:51;;;;;;;;;;;7.50;77.30;;;;;;2079391;28;19928;-90
2022/04/29 05:59:51;;;;;;;;;;;7.50;77.10;;;;;;2085780;28;19952;-90
2022/04/29 06:00:52;;;;;;;;;;;7.50;77.20;;;;;;2083050;28;19960;-90
2022/04/29 06:01:52;;;;;;;;;;;7.60;77.00;;;;;;2098466;28;19915;-91
2022/04/29 06:02:53;;;;;;;;;;;7.60;77.10;;;;;;2099616;28;19995;-91
2022/04/29 06:03:54;;;;;;;;;;;7.60;76.90;;;;;;2090824;28;20591;-90
2022/04/29 06:04:54;;;;;;;;;;;7.60;77.30;;;;;;2083695;28;20117;-90
2022/04/29 06:05:55;;;;;;;;;;;7.60;77.10;;;;;;2092394;28;19931;-91
2022/04/29 06:06:55;;;;;;;;;;;7.60;77.00;;;;;;2095893;28;19916;-91
2022/04/29 06:07:56;;;;;;;;;;;7.60;76.90;;;;;;2077797;28;19991;-90
2022/04/29 06:08:56;;;;;;;;;;;7.70;77.10;;;;;;2086947;28;19917;-90
2022/04/29 06:09:57;;;;;;;;;;;7.70;77.20;;;;;;2090761;28;19948;-90